createdAt,value
2023-05-19T00:00:21.479Z,101248.30
2023-05-19T00:02:53.386Z,101244.61
2023-05-19T00:05:25.184Z,101245.61
2023-05-19T00:07:57.458Z,101243.33
2023-05-19T00:10:31.995Z,101242.70
2023-05-19T00:13:04.062Z,101245.23
2023-05-19T00:15:36.467Z,101248.10
2023-05-19T00:18:09.035Z,101253.86
2023-05-19T00:20:39.748Z,101253.85
2023-05-19T00:23:10.555Z,101254.98
2023-05-19T00:25:41.066Z,101252.86
2023-05-19T00:28:11.536Z,101252.29
2023-05-19T00:30:42.119Z,101251.33
2023-05-19T00:33:12.860Z,101255.19
2023-05-19T00:35:43.447Z,101254.94
2023-05-19T00:38:13.908Z,101251.89
2023-05-19T00:40:44.598Z,101252.00
2023-05-19T00:43:15.815Z,101256.23
2023-05-19T00:45:47.064Z,101254.09
2023-05-19T00:48:17.599Z,101255.04
2023-05-19T00:50:48.670Z,101256.52
2023-05-19T00:53:20.366Z,101253.70
2023-05-19T00:55:51.559Z,101252.77
2023-05-19T00:58:23.936Z,101255.23
2023-05-19T01:00:56.205Z,101258.11
2023-05-19T01:03:26.890Z,101261.20
2023-05-19T01:05:57.560Z,101255.14
2023-05-19T01:08:28.937Z,101251.49
2023-05-19T01:10:59.661Z,101249.41
2023-05-19T01:13:31.533Z,101244.56
2023-05-19T01:16:07.870Z,101241.41
2023-05-19T01:18:48.464Z,101247.42
2023-05-19T01:21:51.244Z,101247.89
2023-05-19T01:24:57.271Z,101248.04
2023-05-19T01:27:43.121Z,101249.37
2023-05-19T01:30:30.099Z,101249.02
2023-05-19T01:33:04.179Z,101251.89
2023-05-19T01:35:36.216Z,101257.33
2023-05-19T01:38:09.016Z,101258.86
2023-05-19T01:40:41.621Z,101260.02
2023-05-19T01:43:16.768Z,101259.16
2023-05-19T01:45:48.257Z,101257.09
2023-05-19T01:48:19.731Z,101255.84
2023-05-19T01:50:50.409Z,101257.02
2023-05-19T01:53:21.031Z,101255.95
2023-05-19T01:55:58.121Z,101262.13
2023-05-19T01:58:38.983Z,101263.66
2023-05-19T02:01:17.842Z,101257.29
2023-05-19T02:04:03.221Z,101255.89
2023-05-19T02:06:43.073Z,101249.80
2023-05-19T02:09:23.289Z,101252.34
2023-05-19T02:12:02.536Z,101254.36
2023-05-19T02:14:39.446Z,101253.32
2023-05-19T02:17:13.944Z,101257.23
2023-05-19T02:19:45.614Z,101253.08
2023-05-19T02:22:16.142Z,101254.25
2023-05-19T02:24:47.876Z,101252.52
2023-05-19T02:27:18.729Z,101252.13
2023-05-19T02:29:49.216Z,101250.05
2023-05-19T02:32:20.420Z,101249.88
2023-05-19T02:34:51.547Z,101245.08
2023-05-19T02:37:23.886Z,101246.44
2023-05-19T02:39:54.370Z,101245.44
2023-05-19T02:42:24.928Z,101242.01
2023-05-19T02:44:56.718Z,101241.70
2023-05-19T02:47:27.323Z,101242.06
2023-05-19T02:49:57.814Z,101240.48
2023-05-19T02:52:28.299Z,101240.97
2023-05-19T02:54:58.758Z,101238.03
2023-05-19T02:57:31.743Z,101236.83
2023-05-19T03:00:02.777Z,101229.44
2023-05-19T03:02:34.260Z,101231.66
2023-05-19T03:05:05.897Z,101238.90
2023-05-19T03:07:36.414Z,101238.86
2023-05-19T03:10:09.034Z,101241.42
2023-05-19T03:12:39.560Z,101243.48
2023-05-19T03:15:13.129Z,101243.09
2023-05-19T03:17:43.683Z,101245.30
2023-05-19T03:20:16.253Z,101247.70
2023-05-19T03:22:46.818Z,101244.91
2023-05-19T03:25:17.625Z,101245.77
2023-05-19T03:27:48.190Z,101245.06
2023-05-19T03:30:19.471Z,101243.48
2023-05-19T03:33:07.541Z,101242.79
2023-05-19T03:35:38.257Z,101238.81
2023-05-19T03:38:09.163Z,101235.36
2023-05-19T03:40:41.470Z,101237.08
2023-05-19T03:43:13.407Z,101236.20
2023-05-19T03:45:49.153Z,101233.94
2023-05-19T03:48:38.725Z,101236.34
2023-05-19T03:51:21.292Z,101235.63
2023-05-19T03:53:53.849Z,101235.07
2023-05-19T03:56:26.612Z,101239.36
2023-05-19T03:58:57.160Z,101238.20
2023-05-19T04:01:27.838Z,101237.52
2023-05-19T04:03:58.376Z,101240.11
2023-05-19T04:06:29.534Z,101243.56
2023-05-19T04:09:00.134Z,101244.10
2023-05-19T04:11:30.787Z,101239.14
2023-05-19T04:14:01.772Z,101240.54
2023-05-19T04:16:32.498Z,101240.90
2023-05-19T04:19:03.301Z,101244.70
2023-05-19T04:21:33.982Z,101247.79
2023-05-19T04:24:06.696Z,101246.23
2023-05-19T04:26:38.516Z,101250.34
2023-05-19T04:29:10.820Z,101250.31
2023-05-19T04:31:42.370Z,101247.27
2023-05-19T04:34:13.320Z,101243.88
2023-05-19T04:36:44.184Z,101243.05
2023-05-19T04:39:14.735Z,101242.55
2023-05-19T04:41:46.816Z,101241.86
2023-05-19T04:44:18.577Z,101241.85
2023-05-19T04:46:54.500Z,101239.61
2023-05-19T04:49:49.931Z,101247.52
2023-05-19T04:52:21.932Z,101248.02
2023-05-19T04:54:52.946Z,101246.68
2023-05-19T04:57:23.566Z,101252.88
2023-05-19T04:59:59.851Z,101253.65
2023-05-19T05:02:32.273Z,101258.17
2023-05-19T05:05:04.330Z,101258.19
2023-05-19T05:07:35.189Z,101255.95
2023-05-19T05:10:07.662Z,101257.31
2023-05-19T05:12:39.566Z,101259.91
2023-05-19T05:15:10.477Z,101260.45
2023-05-19T05:17:42.510Z,101257.30
2023-05-19T05:20:15.702Z,101258.85
2023-05-19T05:22:47.780Z,101264.17
2023-05-19T05:25:21.351Z,101261.81
2023-05-19T05:27:52.624Z,101264.08
2023-05-19T05:30:23.254Z,101261.67
2023-05-19T05:32:54.045Z,101260.78
2023-05-19T05:35:33.616Z,101262.33
2023-05-19T05:38:05.275Z,101259.92
2023-05-19T05:40:35.907Z,101260.61
2023-05-19T05:43:06.957Z,101255.81
2023-05-19T05:45:40.827Z,101256.86
2023-05-19T05:48:13.524Z,101257.21
2023-05-19T05:50:46.345Z,101258.42
2023-05-19T05:53:21.760Z,101258.95
2023-05-19T05:55:55.525Z,101259.66
2023-05-19T05:58:32.871Z,101259.33
2023-05-19T06:01:03.451Z,101258.71
2023-05-19T06:03:34.233Z,101258.67
2023-05-19T06:06:08.770Z,101256.35
2023-05-19T06:08:39.594Z,101258.69
2023-05-19T06:11:10.345Z,101261.36
2023-05-19T06:13:42.530Z,101261.94
2023-05-19T06:16:17.248Z,101259.23
2023-05-19T06:18:50.107Z,101268.93
2023-05-19T06:21:21.916Z,101274.45
2023-05-19T06:23:52.455Z,101272.74
2023-05-19T06:26:23.009Z,101274.66
2023-05-19T06:28:53.623Z,101277.10
2023-05-19T06:31:26.556Z,101274.44
2023-05-19T06:34:00.069Z,101270.02
2023-05-19T06:36:31.457Z,101275.09
2023-05-19T06:39:02.884Z,101275.00
2023-05-19T06:41:34.680Z,101278.64
2023-05-19T06:44:07.883Z,101279.20
2023-05-19T06:46:38.472Z,101275.98
2023-05-19T06:49:09.518Z,101282.23
2023-05-19T06:51:42.037Z,101278.14
2023-05-19T06:54:16.330Z,101279.05
2023-05-19T06:56:46.905Z,101280.13
2023-05-19T06:59:21.898Z,101277.73
2023-05-19T07:01:53.046Z,101282.21
2023-05-19T07:04:24.168Z,101282.91
2023-05-19T07:06:55.105Z,101283.25
2023-05-19T07:09:25.809Z,101284.99
2023-05-19T07:11:56.660Z,101286.05
2023-05-19T07:14:27.625Z,101290.00
2023-05-19T07:16:58.453Z,101292.25
2023-05-19T07:19:29.082Z,101292.45
2023-05-19T07:21:59.969Z,101292.12
2023-05-19T07:24:31.553Z,101292.84
2023-05-19T07:27:02.311Z,101293.54
2023-05-19T07:29:32.860Z,101295.98
2023-05-19T07:32:51.528Z,101294.30
2023-05-19T07:35:22.992Z,101294.86
2023-05-19T07:37:54.160Z,101295.55
2023-05-19T07:40:24.788Z,101297.30
2023-05-19T07:42:55.339Z,101294.90
2023-05-19T07:45:25.910Z,101292.13
2023-05-19T07:47:57.297Z,101291.25
2023-05-19T07:50:28.246Z,101290.90
2023-05-19T07:52:59.074Z,101295.20
2023-05-19T07:55:29.578Z,101297.59
2023-05-19T07:58:00.114Z,101292.70
2023-05-19T08:00:31.003Z,101292.50
2023-05-19T08:03:03.214Z,101292.16
2023-05-19T08:05:34.120Z,101296.31
2023-05-19T08:08:04.981Z,101297.04
2023-05-19T08:10:35.728Z,101293.28
2023-05-19T08:13:06.466Z,101290.06
2023-05-19T08:15:37.057Z,101291.66
2023-05-19T08:18:08.058Z,101289.32
2023-05-19T08:20:39.576Z,101289.73
2023-05-19T08:23:10.120Z,101292.02
2023-05-19T08:25:40.846Z,101293.13
2023-05-19T08:28:11.471Z,101285.61
2023-05-19T08:30:42.101Z,101288.83
2023-05-19T08:33:12.667Z,101286.48
2023-05-19T08:35:44.590Z,101281.04
2023-05-19T08:38:15.240Z,101280.42
2023-05-19T08:40:48.471Z,101282.91
2023-05-19T08:43:19.118Z,101284.19
2023-05-19T08:45:50.105Z,101283.38
2023-05-19T08:48:22.771Z,101285.40
2023-05-19T08:51:07.081Z,101282.55
2023-05-19T08:53:44.012Z,101285.16
2023-05-19T08:56:17.550Z,101289.47
2023-05-19T08:58:50.482Z,101287.89
2023-05-19T09:01:23.474Z,101284.87
2023-05-19T09:03:54.622Z,101283.79
2023-05-19T09:06:26.570Z,101282.92
2023-05-19T09:08:57.302Z,101281.02
2023-05-19T09:11:28.368Z,101282.55
2023-05-19T09:13:58.900Z,101284.12
2023-05-19T09:16:30.425Z,101283.16
2023-05-19T09:19:01.725Z,101279.52
2023-05-19T09:21:32.984Z,101276.56
2023-05-19T09:24:08.931Z,101278.96
2023-05-19T09:26:43.937Z,101277.77
2023-05-19T09:29:16.492Z,101276.56
2023-05-19T09:31:52.546Z,101276.70
2023-05-19T09:34:25.154Z,101270.31
2023-05-19T09:36:57.808Z,101274.23
2023-05-19T09:39:29.052Z,101268.84
2023-05-19T09:41:59.692Z,101267.43
2023-05-19T09:44:30.704Z,101264.94
2023-05-19T09:47:02.336Z,101266.77
2023-05-19T09:49:33.954Z,101264.80
2023-05-19T09:52:06.138Z,101265.07
2023-05-19T09:54:37.415Z,101263.09
2023-05-19T09:57:09.016Z,101256.24
2023-05-19T09:59:39.998Z,101250.12
2023-05-19T10:02:16.256Z,101245.39
2023-05-19T10:04:47.720Z,101239.92
2023-05-19T10:07:19.105Z,101239.86
2023-05-19T10:09:51.319Z,101239.27
2023-05-19T10:12:23.058Z,101241.73
2023-05-19T10:14:54.917Z,101240.90
2023-05-19T10:17:28.519Z,101234.87
2023-05-19T10:20:00.551Z,101234.90
2023-05-19T10:22:31.328Z,101238.52
2023-05-19T10:25:01.986Z,101235.41
2023-05-19T10:27:34.018Z,101232.24
2023-05-19T10:30:12.110Z,101230.30
2023-05-19T10:32:46.615Z,101228.38
2023-05-19T10:36:11.296Z,101234.02
2023-05-19T10:38:49.741Z,101234.29
2023-05-19T10:41:28.252Z,101233.74
2023-05-19T10:44:10.667Z,101233.39
2023-05-19T10:46:43.204Z,101233.20
2023-05-19T10:49:23.287Z,101236.11
2023-05-19T10:51:56.896Z,101239.91
2023-05-19T10:54:43.359Z,101241.11
2023-05-19T10:57:18.557Z,101243.16
2023-05-19T10:59:50.041Z,101241.78
2023-05-19T11:02:42.972Z,101242.13
2023-05-19T11:05:16.814Z,101246.61
2023-05-19T11:08:02.232Z,101247.59
2023-05-19T11:10:33.596Z,101245.27
2023-05-19T11:13:06.489Z,101242.80
2023-05-19T11:15:38.670Z,101241.05
2023-05-19T11:18:07.725Z,101241.55
2023-05-19T11:20:41.566Z,101244.09
2023-05-19T11:23:17.959Z,101245.31
2023-05-19T11:25:51.206Z,101243.94
2023-05-19T11:28:26.239Z,101241.70
2023-05-19T11:31:00.103Z,101238.11
2023-05-19T11:33:33.275Z,101235.89
2023-05-19T11:36:04.011Z,101229.55
2023-05-19T11:38:35.973Z,101233.20
2023-05-19T11:41:06.865Z,101231.46
2023-05-19T11:43:37.491Z,101230.39
2023-05-19T11:46:09.086Z,101234.65
2023-05-19T11:48:39.651Z,101234.79
2023-05-19T11:51:10.331Z,101239.39
2023-05-19T11:53:40.886Z,101238.30
2023-05-19T11:56:12.781Z,101240.51
2023-05-19T11:58:43.827Z,101238.42
2023-05-19T12:01:14.458Z,101233.25
2023-05-19T12:03:45.031Z,101234.98
2023-05-19T12:06:17.580Z,101235.86
2023-05-19T12:08:48.261Z,101236.27
2023-05-19T12:11:20.065Z,101235.27
2023-05-19T12:13:54.679Z,101229.30
2023-05-19T12:16:26.126Z,101230.90
2023-05-19T12:18:57.976Z,101231.27
2023-05-19T12:21:34.119Z,101229.41
2023-05-19T12:24:06.687Z,101228.41
2023-05-19T12:26:38.183Z,101229.78
2023-05-19T12:29:09.265Z,101233.71
2023-05-19T12:31:40.455Z,101239.03
2023-05-19T12:34:13.434Z,101235.73
2023-05-19T12:36:44.996Z,101236.58
2023-05-19T12:39:15.671Z,101237.61
2023-05-19T12:41:48.667Z,101233.96
2023-05-19T12:44:19.531Z,101236.69
2023-05-19T12:46:54.575Z,101236.48
2023-05-19T12:49:25.115Z,101237.30
2023-05-19T12:51:56.798Z,101237.48
2023-05-19T12:54:27.412Z,101241.78
2023-05-19T12:57:00.750Z,101243.13
2023-05-19T12:59:38.790Z,101241.71
2023-05-19T13:02:09.957Z,101242.22
2023-05-19T13:04:40.609Z,101236.02
2023-05-19T13:07:11.179Z,101237.55
2023-05-19T13:09:42.345Z,101236.00
2023-05-19T13:12:13.035Z,101230.49
2023-05-19T13:14:44.440Z,101234.80
2023-05-19T13:17:14.971Z,101235.65
2023-05-19T13:19:45.621Z,101236.33
2023-05-19T13:22:16.125Z,101238.90
2023-05-19T13:24:46.641Z,101232.84
2023-05-19T13:27:17.287Z,101231.41
2023-05-19T13:29:47.852Z,101233.65
2023-05-19T13:32:18.366Z,101230.67
2023-05-19T13:34:49.093Z,101230.49
2023-05-19T13:37:19.848Z,101230.50
2023-05-19T13:39:50.456Z,101231.02
2023-05-19T13:42:20.977Z,101228.77
2023-05-19T13:44:55.160Z,101227.23
2023-05-19T13:47:26.397Z,101228.45
2023-05-19T13:49:57.359Z,101228.83
2023-05-19T13:52:29.093Z,101231.97
2023-05-19T13:55:00.966Z,101228.84
2023-05-19T13:57:31.740Z,101229.20
2023-05-19T14:00:04.598Z,101226.29
2023-05-19T14:02:44.827Z,101231.65
2023-05-19T14:05:15.635Z,101230.80
2023-05-19T14:07:46.368Z,101229.27
2023-05-19T14:10:16.910Z,101225.48
2023-05-19T14:13:14.121Z,101224.30
2023-05-19T14:15:38.587Z,101218.98
2023-05-19T14:18:09.150Z,101219.57
2023-05-19T14:20:39.777Z,101216.17
2023-05-19T14:23:10.286Z,101216.05
2023-05-19T14:25:41.513Z,101214.93
2023-05-19T14:28:12.078Z,101213.33
2023-05-19T14:30:42.601Z,101215.14
2023-05-19T14:33:13.227Z,101212.48
2023-05-19T14:35:43.796Z,101210.80
2023-05-19T14:38:14.399Z,101213.06
2023-05-19T14:40:44.984Z,101214.60
2023-05-19T14:43:15.555Z,101211.66
2023-05-19T14:45:46.555Z,101210.92
2023-05-19T14:48:17.330Z,101213.28
2023-05-19T14:50:49.220Z,101212.36
2023-05-19T14:53:18.254Z,101212.67
2023-05-19T14:55:50.068Z,101209.53
2023-05-19T14:58:28.900Z,101209.35
2023-05-19T15:01:01.746Z,101207.55
2023-05-19T15:03:32.490Z,101209.77
2023-05-19T15:06:03.461Z,101209.59
2023-05-19T15:08:33.980Z,101208.40
2023-05-19T15:11:04.466Z,101208.42
2023-05-19T15:13:35.409Z,101209.85
2023-05-19T15:16:17.474Z,101208.34
2023-05-19T15:18:48.948Z,101210.66
2023-05-19T15:21:19.541Z,101209.55
2023-05-19T15:23:50.074Z,101208.41
2023-05-19T15:26:21.089Z,101209.17
2023-05-19T15:28:53.042Z,101208.02
2023-05-19T15:31:23.807Z,101201.86
2023-05-19T15:33:54.421Z,101203.42
2023-05-19T15:36:25.037Z,101201.54
2023-05-19T15:38:55.566Z,101201.02
2023-05-19T15:41:26.852Z,101199.81
2023-05-19T15:43:57.335Z,101197.39
2023-05-19T15:46:28.008Z,101193.08
2023-05-19T15:48:58.641Z,101192.55
2023-05-19T15:51:29.330Z,101190.66
2023-05-19T15:53:59.808Z,101186.86
2023-05-19T15:56:30.442Z,101187.89
2023-05-19T15:59:00.916Z,101191.52
2023-05-19T16:01:31.551Z,101190.16
2023-05-19T16:04:03.773Z,101186.38
2023-05-19T16:06:34.655Z,101188.45
2023-05-19T16:09:05.287Z,101187.60
2023-05-19T16:11:35.834Z,101188.11
2023-05-19T16:14:06.794Z,101189.99
2023-05-19T16:16:37.506Z,101193.95
2023-05-19T16:19:08.265Z,101191.52
2023-05-19T16:21:38.985Z,101192.91
2023-05-19T16:24:09.853Z,101185.48
2023-05-19T16:26:40.360Z,101184.42
2023-05-19T16:29:11.005Z,101186.82
2023-05-19T16:31:41.523Z,101187.69
2023-05-19T16:34:12.123Z,101186.13
2023-05-19T16:36:42.650Z,101192.34
2023-05-19T16:39:13.479Z,101188.35
2023-05-19T16:41:43.969Z,101186.60
2023-05-19T16:44:14.744Z,101187.80
2023-05-19T16:46:45.319Z,101186.75
2023-05-19T16:49:16.205Z,101185.70
2023-05-19T16:51:48.275Z,101179.32
2023-05-19T16:54:20.300Z,101178.79
2023-05-19T16:56:51.172Z,101183.80
2023-05-19T16:59:21.848Z,101184.30
2023-05-19T17:06:05.386Z,101192.39
2023-05-19T17:08:36.392Z,101189.25
2023-05-19T17:11:07.402Z,101188.05
2023-05-19T17:13:37.905Z,101188.05
2023-05-19T17:16:09.013Z,101189.38
2023-05-19T17:18:39.535Z,101191.75
2023-05-19T17:21:10.515Z,101193.08
2023-05-19T17:23:41.604Z,101192.55
2023-05-19T17:26:12.201Z,101193.91
2023-05-19T17:28:42.757Z,101194.92
2023-05-19T17:31:14.248Z,101196.10
2023-05-19T17:33:45.009Z,101197.12
2023-05-19T17:36:15.698Z,101198.64
2023-05-19T17:38:46.479Z,101199.32
2023-05-19T17:41:16.950Z,101204.99
2023-05-19T17:43:47.461Z,101203.60
2023-05-19T17:46:17.989Z,101207.89
2023-05-19T17:48:48.482Z,101203.90
2023-05-19T17:51:19.321Z,101204.91
2023-05-19T17:53:50.821Z,101207.49
2023-05-19T17:56:23.831Z,101208.34
2023-05-19T17:58:55.420Z,101209.53
2023-05-19T18:01:27.232Z,101206.77
2023-05-19T18:03:56.877Z,101206.23
2023-05-19T18:06:29.309Z,101207.42
2023-05-19T18:09:01.942Z,101204.48
2023-05-19T18:11:32.627Z,101202.73
2023-05-19T18:14:03.324Z,101198.77
2023-05-19T18:16:34.313Z,101197.39
2023-05-19T18:19:05.677Z,101196.16
2023-05-19T18:21:36.239Z,101195.98
2023-05-19T18:24:07.368Z,101198.05
2023-05-19T18:26:41.848Z,101197.53
2023-05-19T18:29:14.597Z,101195.29
2023-05-19T18:31:45.294Z,101190.46
2023-05-19T18:34:15.900Z,101190.83
2023-05-19T18:36:46.439Z,101188.08
2023-05-19T18:39:16.916Z,101191.53
2023-05-19T18:41:47.612Z,101193.42
2023-05-19T18:44:18.177Z,101194.60
2023-05-19T18:46:49.764Z,101195.77
2023-05-19T18:49:21.071Z,101196.78
2023-05-19T18:51:51.652Z,101197.30
2023-05-19T18:54:22.537Z,101200.02
2023-05-19T18:56:53.057Z,101208.09
2023-05-19T18:59:25.864Z,101206.02
2023-05-19T19:01:57.304Z,101209.66
2023-05-19T19:04:27.912Z,101210.35
2023-05-19T19:06:58.430Z,101213.77
2023-05-19T19:09:29.042Z,101217.92
2023-05-19T19:11:59.872Z,101219.11
2023-05-19T19:14:30.611Z,101229.96
2023-05-19T19:17:01.161Z,101228.06
2023-05-19T19:19:32.008Z,101231.85
2023-05-19T19:22:02.725Z,101235.14
2023-05-19T19:24:33.198Z,101233.93
2023-05-19T19:27:04.095Z,101237.86
2023-05-19T19:29:34.566Z,101238.20
2023-05-19T19:32:05.389Z,101238.89
2023-05-19T19:34:36.397Z,101237.52
2023-05-19T19:37:07.086Z,101235.25
2023-05-19T19:39:38.117Z,101233.52
2023-05-19T19:42:08.908Z,101232.64
2023-05-19T19:44:39.439Z,101233.17
2023-05-19T19:47:10.074Z,101234.03
2023-05-19T19:49:40.676Z,101236.30
2023-05-19T19:52:11.174Z,101234.21
2023-05-19T19:54:42.263Z,101236.98
2023-05-19T19:57:12.735Z,101236.80
2023-05-19T19:59:43.432Z,101234.20
2023-05-19T20:02:13.993Z,101236.77
2023-05-19T20:04:44.605Z,101236.59
2023-05-19T20:07:15.327Z,101238.13
2023-05-19T20:09:45.806Z,101243.82
2023-05-19T20:12:16.296Z,101245.70
2023-05-19T20:14:47.739Z,101243.30
2023-05-19T20:17:18.339Z,101243.97
2023-05-19T20:19:48.922Z,101245.35
2023-05-19T20:22:19.577Z,101247.58
2023-05-19T20:24:50.088Z,101244.61
2023-05-19T20:27:20.711Z,101245.14
2023-05-19T20:29:51.393Z,101241.01
2023-05-19T20:32:21.940Z,101241.71
2023-05-19T20:34:52.431Z,101243.44
2023-05-19T20:37:23.233Z,101247.75
2023-05-19T20:39:53.908Z,101244.48
2023-05-19T20:42:24.474Z,101246.10
2023-05-19T20:44:55.851Z,101246.51
2023-05-19T20:47:28.310Z,101247.23
2023-05-19T20:50:00.435Z,101245.34
2023-05-19T20:52:32.327Z,101245.02
2023-05-19T20:55:02.819Z,101245.38
2023-05-19T20:57:33.330Z,101240.55
2023-05-19T21:00:04.016Z,101235.41
2023-05-19T21:02:34.481Z,101239.04
2023-05-19T21:05:05.808Z,101234.20
2023-05-19T21:07:36.340Z,101228.98
2023-05-19T21:10:08.462Z,101231.38
2023-05-19T21:12:38.974Z,101233.61
2023-05-19T21:15:11.487Z,101234.62
2023-05-19T21:17:42.418Z,101231.30
2023-05-19T21:20:14.613Z,101231.80
2023-05-19T21:22:45.170Z,101228.80
2023-05-19T21:25:17.143Z,101227.91
2023-05-19T21:27:47.637Z,101230.64
2023-05-19T21:30:18.167Z,101232.88
2023-05-19T21:32:48.714Z,101231.30
2023-05-19T21:35:19.532Z,101230.41
2023-05-19T21:37:50.515Z,101228.80
2023-05-19T21:40:21.432Z,101228.40
2023-05-19T21:42:52.052Z,101229.57
2023-05-19T21:45:22.548Z,101227.14
2023-05-19T21:47:53.124Z,101225.77
2023-05-19T21:50:23.681Z,101227.38
2023-05-19T21:52:54.177Z,101228.63
2023-05-19T21:55:24.883Z,101230.73
2023-05-19T21:57:55.439Z,101227.46
2023-05-19T22:00:25.990Z,101226.95
2023-05-19T22:02:56.624Z,101224.71
2023-05-19T22:05:27.427Z,101224.02
2023-05-19T22:07:58.050Z,101218.12
2023-05-19T22:10:28.545Z,101221.39
2023-05-19T22:12:59.416Z,101220.32
2023-05-19T22:15:29.878Z,101218.21
2023-05-19T22:18:00.517Z,101219.56
2023-05-19T22:20:31.550Z,101226.09
2023-05-19T22:23:03.807Z,101222.79
2023-05-19T22:25:34.521Z,101218.27
2023-05-19T22:28:07.538Z,101216.16
2023-05-19T22:30:41.125Z,101212.34
2023-05-19T22:33:13.264Z,101208.51
2023-05-19T22:35:44.229Z,101205.56
2023-05-19T22:38:14.738Z,101203.15
2023-05-19T22:40:45.895Z,101201.14
2023-05-19T22:43:16.414Z,101198.61
2023-05-19T22:45:47.221Z,101195.72
2023-05-19T22:48:17.951Z,101197.64
2023-05-19T22:50:48.849Z,101198.70
2023-05-19T22:53:19.321Z,101202.85
2023-05-19T22:55:49.855Z,101197.33
2023-05-19T22:58:20.375Z,101195.77
2023-05-19T23:00:50.882Z,101200.92
2023-05-19T23:03:21.429Z,101201.08
2023-05-19T23:05:51.914Z,101209.67
2023-05-19T23:08:22.436Z,101206.89
2023-05-19T23:11:03.313Z,101207.04
2023-05-19T23:13:33.973Z,101205.95
2023-05-19T23:16:06.735Z,101205.08
2023-05-19T23:18:37.209Z,101202.80
2023-05-19T23:21:07.775Z,101204.52
2023-05-19T23:23:38.554Z,101203.98
2023-05-19T23:26:09.259Z,101203.28
2023-05-19T23:28:42.350Z,101200.33
2023-05-19T23:31:12.994Z,101200.83
2023-05-19T23:33:43.632Z,101201.67
2023-05-19T23:36:14.850Z,101195.73
2023-05-19T23:38:45.410Z,101198.16
2023-05-19T23:41:16.046Z,101194.06
2023-05-19T23:43:46.673Z,101188.93
2023-05-19T23:46:17.323Z,101188.27
2023-05-19T23:48:48.210Z,101186.36
2023-05-19T23:51:18.806Z,101188.97
2023-05-19T23:53:49.291Z,101191.72
2023-05-19T23:56:19.778Z,101188.78
2023-05-19T23:58:50.293Z,101190.98
